sensor_id;sensor_type;location;lat;lon;timestamp;temperature;humidity
8896;DHT22;4484;48.928;10.066;2023-05-29T00:02:12;11.10;99.90
8896;DHT22;4484;48.928;10.066;2023-05-29T00:04:39;11.10;99.90
8896;DHT22;4484;48.928;10.066;2023-05-29T00:07:07;11.10;99.90
8896;DHT22;4484;48.928;10.066;2023-05-29T00:09:34;11.00;99.90
8896;DHT22;4484;48.928;10.066;2023-05-29T00:12:00;11.10;99.90
8896;DHT22;4484;48.928;10.066;2023-05-29T00:14:27;11.00;99.90
8896;DHT22;4484;48.928;10.066;2023-05-29T00:16:54;11.00;99.90
8896;DHT22;4484;48.928;10.066;2023-05-29T00:19:21;10.90;99.90
8896;DHT22;4484;48.928;10.066;2023-05-29T00:21:48;10.90;99.90
8896;DHT22;4484;48.928;10.066;2023-05-29T00:24:16;10.90;99.90
8896;DHT22;4484;48.928;10.066;2023-05-29T00:26:43;10.80;99.90
8896;DHT22;4484;48.928;10.066;2023-05-29T00:29:10;10.80;99.90
8896;DHT22;4484;48.928;10.066;2023-05-29T00:31:37;10.80;99.90
8896;DHT22;4484;48.928;10.066;2023-05-29T00:34:04;10.70;99.90
8896;DHT22;4484;48.928;10.066;2023-05-29T00:36:32;10.70;99.90
8896;DHT22;4484;48.928;10.066;2023-05-29T00:38:59;10.70;99.90
8896;DHT22;4484;48.928;10.066;2023-05-29T00:41:26;10.70;99.90
8896;DHT22;4484;48.928;10.066;2023-05-29T00:43:53;10.70;99.90
8896;DHT22;4484;48.928;10.066;2023-05-29T00:46:20;10.70;99.90
8896;DHT22;4484;48.928;10.066;2023-05-29T00:48:48;10.70;99.90
8896;DHT22;4484;48.928;10.066;2023-05-29T00:51:16;10.70;99.90
8896;DHT22;4484;48.928;10.066;2023-05-29T00:53:44;10.80;99.90
8896;DHT22;4484;48.928;10.066;2023-05-29T00:56:11;10.80;99.90
8896;DHT22;4484;48.928;10.066;2023-05-29T00:58:39;10.80;99.90
8896;DHT22;4484;48.928;10.066;2023-05-29T01:01:08;10.90;99.90
8896;DHT22;4484;48.928;10.066;2023-05-29T01:03:35;10.80;99.90
8896;DHT22;4484;48.928;10.066;2023-05-29T01:06:02;10.80;99.90
8896;DHT22;4484;48.928;10.066;2023-05-29T01:08:30;10.80;99.90
8896;DHT22;4484;48.928;10.066;2023-05-29T01:11:27;10.80;99.90
8896;DHT22;4484;48.928;10.066;2023-05-29T01:14:00;10.70;99.90
8896;DHT22;4484;48.928;10.066;2023-05-29T01:16:41;10.70;99.90
8896;DHT22;4484;48.928;10.066;2023-05-29T01:24:43;10.60;99.90
8896;DHT22;4484;48.928;10.066;2023-05-29T01:27:15;10.60;99.90
8896;DHT22;4484;48.928;10.066;2023-05-29T01:29:45;10.50;99.90
8896;DHT22;4484;48.928;10.066;2023-05-29T01:32:13;10.50;99.90
8896;DHT22;4484;48.928;10.066;2023-05-29T01:34:39;10.50;99.90
8896;DHT22;4484;48.928;10.066;2023-05-29T01:37:06;10.40;99.90
8896;DHT22;4484;48.928;10.066;2023-05-29T01:39:33;10.40;99.90
8896;DHT22;4484;48.928;10.066;2023-05-29T01:42:01;10.40;99.90
8896;DHT22;4484;48.928;10.066;2023-05-29T01:44:29;10.40;99.90
8896;DHT22;4484;48.928;10.066;2023-05-29T01:46:56;10.50;99.90
8896;DHT22;4484;48.928;10.066;2023-05-29T01:49:24;10.50;99.90
8896;DHT22;4484;48.928;10.066;2023-05-29T01:51:52;10.50;99.90
8896;DHT22;4484;48.928;10.066;2023-05-29T01:54:19;10.40;99.90
8896;DHT22;4484;48.928;10.066;2023-05-29T01:56:47;10.30;99.90
8896;DHT22;4484;48.928;10.066;2023-05-29T01:59:15;10.30;99.90
8896;DHT22;4484;48.928;10.066;2023-05-29T02:01:42;10.30;99.90
8896;DHT22;4484;48.928;10.066;2023-05-29T02:04:09;10.30;99.90
8896;DHT22;4484;48.928;10.066;2023-05-29T02:06:36;10.20;99.90
8896;DHT22;4484;48.928;10.066;2023-05-29T02:09:03;10.10;99.90
8896;DHT22;4484;48.928;10.066;2023-05-29T02:11:30;10.00;99.90
8896;DHT22;4484;48.928;10.066;2023-05-29T02:13:57;10.00;99.90
8896;DHT22;4484;48.928;10.066;2023-05-29T02:16:24;10.00;99.90
8896;DHT22;4484;48.928;10.066;2023-05-29T02:18:55;9.90;99.90
8896;DHT22;4484;48.928;10.066;2023-05-29T02:21:21;9.90;99.90
8896;DHT22;4484;48.928;10.066;2023-05-29T02:23:48;9.80;99.90
8896;DHT22;4484;48.928;10.066;2023-05-29T02:26:16;9.80;99.90
8896;DHT22;4484;48.928;10.066;2023-05-29T02:28:43;9.70;99.90
8896;DHT22;4484;48.928;10.066;2023-05-29T02:31:09;9.70;99.90
8896;DHT22;4484;48.928;10.066;2023-05-29T02:33:36;9.70;99.90
8896;DHT22;4484;48.928;10.066;2023-05-29T02:36:03;9.70;99.90
8896;DHT22;4484;48.928;10.066;2023-05-29T02:38:30;9.70;99.90
8896;DHT22;4484;48.928;10.066;2023-05-29T02:40:59;9.70;99.90
8896;DHT22;4484;48.928;10.066;2023-05-29T02:43:25;9.70;99.90
8896;DHT22;4484;48.928;10.066;2023-05-29T02:45:54;9.70;99.90
8896;DHT22;4484;48.928;10.066;2023-05-29T02:48:21;9.70;99.90
8896;DHT22;4484;48.928;10.066;2023-05-29T02:50:48;9.70;99.90
8896;DHT22;4484;48.928;10.066;2023-05-29T02:53:15;9.60;99.90
8896;DHT22;4484;48.928;10.066;2023-05-29T02:55:42;9.50;99.90
8896;DHT22;4484;48.928;10.066;2023-05-29T02:58:09;9.50;99.90
8896;DHT22;4484;48.928;10.066;2023-05-29T03:00:38;9.40;99.90
8896;DHT22;4484;48.928;10.066;2023-05-29T03:03:05;9.40;99.90
8896;DHT22;4484;48.928;10.066;2023-05-29T03:05:32;9.30;99.90
8896;DHT22;4484;48.928;10.066;2023-05-29T03:07:59;9.30;99.90
8896;DHT22;4484;48.928;10.066;2023-05-29T03:10:27;9.30;99.90
8896;DHT22;4484;48.928;10.066;2023-05-29T03:12:54;9.20;99.90
8896;DHT22;4484;48.928;10.066;2023-05-29T03:15:22;9.20;99.90
8896;DHT22;4484;48.928;10.066;2023-05-29T03:17:49;9.10;99.90
8896;DHT22;4484;48.928;10.066;2023-05-29T03:20:20;9.10;99.90
8896;DHT22;4484;48.928;10.066;2023-05-29T03:22:50;9.10;99.90
8896;DHT22;4484;48.928;10.066;2023-05-29T03:25:16;9.00;99.90
8896;DHT22;4484;48.928;10.066;2023-05-29T03:27:44;9.00;99.90
8896;DHT22;4484;48.928;10.066;2023-05-29T03:30:15;8.90;99.90
8896;DHT22;4484;48.928;10.066;2023-05-29T03:32:42;8.90;99.90
8896;DHT22;4484;48.928;10.066;2023-05-29T03:35:09;8.90;99.90
8896;DHT22;4484;48.928;10.066;2023-05-29T03:37:40;8.90;99.90
8896;DHT22;4484;48.928;10.066;2023-05-29T03:40:07;8.90;99.90
8896;DHT22;4484;48.928;10.066;2023-05-29T03:42:34;8.90;99.90
8896;DHT22;4484;48.928;10.066;2023-05-29T03:45:01;8.90;99.90
8896;DHT22;4484;48.928;10.066;2023-05-29T03:47:30;8.90;99.90
8896;DHT22;4484;48.928;10.066;2023-05-29T03:49:57;8.90;99.90
8896;DHT22;4484;48.928;10.066;2023-05-29T03:52:23;9.00;99.90
8896;DHT22;4484;48.928;10.066;2023-05-29T03:54:52;8.90;99.90
8896;DHT22;4484;48.928;10.066;2023-05-29T03:57:19;8.90;99.90
8896;DHT22;4484;48.928;10.066;2023-05-29T03:59:46;8.90;99.90
8896;DHT22;4484;48.928;10.066;2023-05-29T04:02:13;8.90;99.90
8896;DHT22;4484;48.928;10.066;2023-05-29T04:04:43;9.00;99.90
8896;DHT22;4484;48.928;10.066;2023-05-29T04:07:10;9.00;99.90
8896;DHT22;4484;48.928;10.066;2023-05-29T04:09:37;9.00;99.90
8896;DHT22;4484;48.928;10.066;2023-05-29T04:12:05;9.00;99.90
8896;DHT22;4484;48.928;10.066;2023-05-29T04:14:33;9.10;99.90
8896;DHT22;4484;48.928;10.066;2023-05-29T04:17:00;9.20;99.90
8896;DHT22;4484;48.928;10.066;2023-05-29T04:19:27;9.30;99.90
8896;DHT22;4484;48.928;10.066;2023-05-29T04:21:54;9.30;99.90
8896;DHT22;4484;48.928;10.066;2023-05-29T04:24:20;9.40;99.90
8896;DHT22;4484;48.928;10.066;2023-05-29T04:26:47;9.40;99.90
8896;DHT22;4484;48.928;10.066;2023-05-29T04:29:14;9.50;99.90
8896;DHT22;4484;48.928;10.066;2023-05-29T04:31:44;9.50;99.90
8896;DHT22;4484;48.928;10.066;2023-05-29T04:34:11;9.60;99.90
8896;DHT22;4484;48.928;10.066;2023-05-29T04:36:38;9.60;99.90
8896;DHT22;4484;48.928;10.066;2023-05-29T04:39:09;9.70;99.90
8896;DHT22;4484;48.928;10.066;2023-05-29T04:41:36;9.70;99.90
8896;DHT22;4484;48.928;10.066;2023-05-29T04:44:06;9.80;99.90
8896;DHT22;4484;48.928;10.066;2023-05-29T04:46:42;9.90;99.90
8896;DHT22;4484;48.928;10.066;2023-05-29T04:49:12;10.00;99.90
8896;DHT22;4484;48.928;10.066;2023-05-29T04:51:42;10.10;99.90
8896;DHT22;4484;48.928;10.066;2023-05-29T04:54:10;10.10;99.90
8896;DHT22;4484;48.928;10.066;2023-05-29T04:56:39;10.20;99.90
8896;DHT22;4484;48.928;10.066;2023-05-29T04:59:12;10.30;99.90
8896;DHT22;4484;48.928;10.066;2023-05-29T05:01:39;10.40;99.90
8896;DHT22;4484;48.928;10.066;2023-05-29T05:04:06;10.50;99.90
8896;DHT22;4484;48.928;10.066;2023-05-29T05:06:33;10.60;99.90
8896;DHT22;4484;48.928;10.066;2023-05-29T05:09:00;10.70;99.90
8896;DHT22;4484;48.928;10.066;2023-05-29T05:11:29;10.80;99.90
8896;DHT22;4484;48.928;10.066;2023-05-29T05:13:56;10.90;99.90
8896;DHT22;4484;48.928;10.066;2023-05-29T05:16:23;11.00;99.90
8896;DHT22;4484;48.928;10.066;2023-05-29T05:18:50;11.10;99.90
8896;DHT22;4484;48.928;10.066;2023-05-29T05:21:18;11.30;99.90
8896;DHT22;4484;48.928;10.066;2023-05-29T05:23:46;11.30;99.90
8896;DHT22;4484;48.928;10.066;2023-05-29T05:26:25;11.50;99.90
8896;DHT22;4484;48.928;10.066;2023-05-29T05:28:53;11.60;99.90
8896;DHT22;4484;48.928;10.066;2023-05-29T05:31:22;11.70;99.90
8896;DHT22;4484;48.928;10.066;2023-05-29T05:33:49;11.90;99.90
8896;DHT22;4484;48.928;10.066;2023-05-29T05:36:17;12.00;99.90
8896;DHT22;4484;48.928;10.066;2023-05-29T05:38:44;12.10;99.90
8896;DHT22;4484;48.928;10.066;2023-05-29T05:41:10;12.30;99.90
8896;DHT22;4484;48.928;10.066;2023-05-29T05:43:39;12.40;99.90
8896;DHT22;4484;48.928;10.066;2023-05-29T05:46:11;12.60;99.90
8896;DHT22;4484;48.928;10.066;2023-05-29T05:48:40;12.70;99.90
8896;DHT22;4484;48.928;10.066;2023-05-29T05:51:07;12.90;99.90
8896;DHT22;4484;48.928;10.066;2023-05-29T05:53:34;13.00;99.90
8896;DHT22;4484;48.928;10.066;2023-05-29T05:56:02;13.20;99.90
8896;DHT22;4484;48.928;10.066;2023-05-29T05:58:29;13.40;99.90
8896;DHT22;4484;48.928;10.066;2023-05-29T06:00:56;13.60;99.90
8896;DHT22;4484;48.928;10.066;2023-05-29T06:03:25;13.90;99.90
8896;DHT22;4484;48.928;10.066;2023-05-29T06:05:57;14.10;99.90
8896;DHT22;4484;48.928;10.066;2023-05-29T06:08:24;14.30;99.90
8896;DHT22;4484;48.928;10.066;2023-05-29T06:10:52;14.60;99.90
8896;DHT22;4484;48.928;10.066;2023-05-29T06:13:19;14.80;99.90
8896;DHT22;4484;48.928;10.066;2023-05-29T06:15:54;15.10;99.90
8896;DHT22;4484;48.928;10.066;2023-05-29T06:18:21;15.30;99.90
8896;DHT22;4484;48.928;10.066;2023-05-29T06:20:48;15.50;99.90
8896;DHT22;4484;48.928;10.066;2023-05-29T06:23:16;15.70;99.90
8896;DHT22;4484;48.928;10.066;2023-05-29T06:25:44;16.00;99.90
8896;DHT22;4484;48.928;10.066;2023-05-29T06:28:11;16.20;99.90
8896;DHT22;4484;48.928;10.066;2023-05-29T06:30:39;16.50;99.90
8896;DHT22;4484;48.928;10.066;2023-05-29T06:33:07;16.70;99.90
8896;DHT22;4484;48.928;10.066;2023-05-29T06:35:37;17.00;99.90
8896;DHT22;4484;48.928;10.066;2023-05-29T06:38:04;17.30;99.90
8896;DHT22;4484;48.928;10.066;2023-05-29T06:40:31;17.60;99.90
8896;DHT22;4484;48.928;10.066;2023-05-29T06:42:58;17.80;99.90
8896;DHT22;4484;48.928;10.066;2023-05-29T06:45:37;18.00;99.90
8896;DHT22;4484;48.928;10.066;2023-05-29T06:48:04;18.20;99.90
8896;DHT22;4484;48.928;10.066;2023-05-29T06:50:32;18.40;99.90
8896;DHT22;4484;48.928;10.066;2023-05-29T06:53:18;18.70;99.90
8896;DHT22;4484;48.928;10.066;2023-05-29T06:55:49;18.90;99.90
8896;DHT22;4484;48.928;10.066;2023-05-29T06:58:16;19.10;99.90
8896;DHT22;4484;48.928;10.066;2023-05-29T07:00:43;19.40;99.90
8896;DHT22;4484;48.928;10.066;2023-05-29T07:03:46;19.70;99.90
8896;DHT22;4484;48.928;10.066;2023-05-29T07:06:13;19.80;97.10
8896;DHT22;4484;48.928;10.066;2023-05-29T07:08:40;19.90;95.70
8896;DHT22;4484;48.928;10.066;2023-05-29T07:11:07;19.80;94.90
8896;DHT22;4484;48.928;10.066;2023-05-29T07:13:34;19.90;95.70
8896;DHT22;4484;48.928;10.066;2023-05-29T07:16:02;20.00;96.90
8896;DHT22;4484;48.928;10.066;2023-05-29T07:18:43;20.40;98.80
8896;DHT22;4484;48.928;10.066;2023-05-29T07:21:11;20.80;95.20
8896;DHT22;4484;48.928;10.066;2023-05-29T07:23:39;21.10;94.30
8896;DHT22;4484;48.928;10.066;2023-05-29T07:26:06;21.40;93.10
8896;DHT22;4484;48.928;10.066;2023-05-29T07:28:32;21.60;92.80
8896;DHT22;4484;48.928;10.066;2023-05-29T07:31:00;21.90;93.40
8896;DHT22;4484;48.928;10.066;2023-05-29T07:33:27;22.00;88.20
8896;DHT22;4484;48.928;10.066;2023-05-29T07:35:56;22.10;89.60
8896;DHT22;4484;48.928;10.066;2023-05-29T07:38:24;22.30;86.40
8896;DHT22;4484;48.928;10.066;2023-05-29T07:40:51;22.60;90.30
8896;DHT22;4484;48.928;10.066;2023-05-29T07:43:30;23.10;88.30
8896;DHT22;4484;48.928;10.066;2023-05-29T07:46:00;23.50;89.70
8896;DHT22;4484;48.928;10.066;2023-05-29T07:48:27;24.00;92.40
8896;DHT22;4484;48.928;10.066;2023-05-29T07:50:55;24.40;83.70
8896;DHT22;4484;48.928;10.066;2023-05-29T07:53:24;24.10;80.40
8896;DHT22;4484;48.928;10.066;2023-05-29T07:55:51;24.10;79.20
8896;DHT22;4484;48.928;10.066;2023-05-29T07:58:18;24.00;80.30
8896;DHT22;4484;48.928;10.066;2023-05-29T08:00:45;24.00;79.60
8896;DHT22;4484;48.928;10.066;2023-05-29T08:03:13;24.20;80.20
8896;DHT22;4484;48.928;10.066;2023-05-29T08:05:59;23.80;75.60
8896;DHT22;4484;48.928;10.066;2023-05-29T08:08:27;23.60;79.20
8896;DHT22;4484;48.928;10.066;2023-05-29T08:10:54;23.80;78.00
8896;DHT22;4484;48.928;10.066;2023-05-29T08:13:22;23.80;79.00
8896;DHT22;4484;48.928;10.066;2023-05-29T08:15:49;23.90;79.80
8896;DHT22;4484;48.928;10.066;2023-05-29T08:18:16;24.10;79.10
8896;DHT22;4484;48.928;10.066;2023-05-29T08:20:43;24.50;76.40
8896;DHT22;4484;48.928;10.066;2023-05-29T08:23:11;24.70;73.90
8896;DHT22;4484;48.928;10.066;2023-05-29T08:25:38;24.60;73.70
8896;DHT22;4484;48.928;10.066;2023-05-29T08:28:05;24.90;77.00
8896;DHT22;4484;48.928;10.066;2023-05-29T08:30:32;25.10;70.40
8896;DHT22;4484;48.928;10.066;2023-05-29T08:32:59;25.00;68.90
8896;DHT22;4484;48.928;10.066;2023-05-29T08:35:26;25.40;78.30
8896;DHT22;4484;48.928;10.066;2023-05-29T08:37:53;26.00;75.80
8896;DHT22;4484;48.928;10.066;2023-05-29T08:40:20;26.70;78.60
8896;DHT22;4484;48.928;10.066;2023-05-29T08:42:53;26.70;72.00
8896;DHT22;4484;48.928;10.066;2023-05-29T08:45:24;27.00;70.80
8896;DHT22;4484;48.928;10.066;2023-05-29T08:47:52;27.20;69.70
8896;DHT22;4484;48.928;10.066;2023-05-29T08:50:20;27.40;63.40
8896;DHT22;4484;48.928;10.066;2023-05-29T08:52:48;27.40;64.90
8896;DHT22;4484;48.928;10.066;2023-05-29T08:55:14;27.60;63.80
8896;DHT22;4484;48.928;10.066;2023-05-29T08:57:42;27.50;60.50
8896;DHT22;4484;48.928;10.066;2023-05-29T09:00:11;27.50;63.50
8896;DHT22;4484;48.928;10.066;2023-05-29T09:02:43;27.20;57.50
8896;DHT22;4484;48.928;10.066;2023-05-29T09:05:12;26.70;58.00
8896;DHT22;4484;48.928;10.066;2023-05-29T09:07:40;26.90;70.80
8896;DHT22;4484;48.928;10.066;2023-05-29T09:10:09;26.90;59.10
8896;DHT22;4484;48.928;10.066;2023-05-29T09:12:36;26.30;58.50
8896;DHT22;4484;48.928;10.066;2023-05-29T09:15:19;26.20;59.50
8896;DHT22;4484;48.928;10.066;2023-05-29T09:17:53;26.30;60.00
8896;DHT22;4484;48.928;10.066;2023-05-29T09:20:21;26.10;59.40
8896;DHT22;4484;48.928;10.066;2023-05-29T09:22:58;26.00;59.40
8896;DHT22;4484;48.928;10.066;2023-05-29T09:25:27;26.20;58.50
8896;DHT22;4484;48.928;10.066;2023-05-29T09:28:05;26.00;58.00
8896;DHT22;4484;48.928;10.066;2023-05-29T09:30:42;26.00;62.90
8896;DHT22;4484;48.928;10.066;2023-05-29T09:33:11;26.30;59.90
8896;DHT22;4484;48.928;10.066;2023-05-29T09:35:47;26.50;59.50
8896;DHT22;4484;48.928;10.066;2023-05-29T09:38:19;26.90;58.30
8896;DHT22;4484;48.928;10.066;2023-05-29T09:41:06;27.00;57.40
8896;DHT22;4484;48.928;10.066;2023-05-29T09:43:34;27.10;62.10
8896;DHT22;4484;48.928;10.066;2023-05-29T09:46:01;27.20;57.60
8896;DHT22;4484;48.928;10.066;2023-05-29T09:48:29;27.70;57.30
8896;DHT22;4484;48.928;10.066;2023-05-29T09:50:57;28.00;62.30
8896;DHT22;4484;48.928;10.066;2023-05-29T09:53:27;28.50;62.00
8896;DHT22;4484;48.928;10.066;2023-05-29T09:55:56;28.60;60.60
8896;DHT22;4484;48.928;10.066;2023-05-29T09:58:25;28.90;61.10
8896;DHT22;4484;48.928;10.066;2023-05-29T10:00:52;29.40;60.50
8896;DHT22;4484;48.928;10.066;2023-05-29T10:03:20;29.90;59.90
8896;DHT22;4484;48.928;10.066;2023-05-29T10:05:53;30.10;56.90
8896;DHT22;4484;48.928;10.066;2023-05-29T10:08:21;30.20;55.00
8896;DHT22;4484;48.928;10.066;2023-05-29T10:11:08;30.10;54.20
8896;DHT22;4484;48.928;10.066;2023-05-29T10:13:39;30.00;55.70
8896;DHT22;4484;48.928;10.066;2023-05-29T10:16:10;30.00;53.50
8896;DHT22;4484;48.928;10.066;2023-05-29T10:18:39;30.20;55.50
8896;DHT22;4484;48.928;10.066;2023-05-29T10:21:11;30.10;55.50
8896;DHT22;4484;48.928;10.066;2023-05-29T10:23:42;30.20;56.20
8896;DHT22;4484;48.928;10.066;2023-05-29T10:26:12;30.20;51.90
8896;DHT22;4484;48.928;10.066;2023-05-29T10:28:46;29.90;51.00
8896;DHT22;4484;48.928;10.066;2023-05-29T10:31:22;29.90;54.30
8896;DHT22;4484;48.928;10.066;2023-05-29T10:34:08;30.10;54.40
8896;DHT22;4484;48.928;10.066;2023-05-29T10:36:42;30.30;52.80
8896;DHT22;4484;48.928;10.066;2023-05-29T10:39:11;30.60;53.00
8896;DHT22;4484;48.928;10.066;2023-05-29T10:41:38;30.80;50.30
8896;DHT22;4484;48.928;10.066;2023-05-29T10:44:48;31.30;50.40
8896;DHT22;4484;48.928;10.066;2023-05-29T10:47:23;31.20;53.10
8896;DHT22;4484;48.928;10.066;2023-05-29T10:49:50;31.50;54.40
8896;DHT22;4484;48.928;10.066;2023-05-29T10:52:19;31.80;55.60
8896;DHT22;4484;48.928;10.066;2023-05-29T10:54:52;32.10;52.50
8896;DHT22;4484;48.928;10.066;2023-05-29T10:57:21;32.10;52.00
8896;DHT22;4484;48.928;10.066;2023-05-29T11:00:04;31.80;51.20
8896;DHT22;4484;48.928;10.066;2023-05-29T11:02:40;31.70;49.20
8896;DHT22;4484;48.928;10.066;2023-05-29T11:05:21;31.20;47.40
8896;DHT22;4484;48.928;10.066;2023-05-29T11:07:57;30.60;46.80
8896;DHT22;4484;48.928;10.066;2023-05-29T11:10:43;30.50;52.90
8896;DHT22;4484;48.928;10.066;2023-05-29T11:13:35;30.30;50.40
8896;DHT22;4484;48.928;10.066;2023-05-29T11:16:05;30.30;47.60
8896;DHT22;4484;48.928;10.066;2023-05-29T11:18:41;29.80;46.10
8896;DHT22;4484;48.928;10.066;2023-05-29T11:23:46;29.90;51.00
8896;DHT22;4484;48.928;10.066;2023-05-29T11:26:14;29.60;45.40
8896;DHT22;4484;48.928;10.066;2023-05-29T11:28:43;29.80;49.90
8896;DHT22;4484;48.928;10.066;2023-05-29T11:31:10;30.20;51.20
8896;DHT22;4484;48.928;10.066;2023-05-29T11:33:40;30.70;54.80
8896;DHT22;4484;48.928;10.066;2023-05-29T11:36:10;31.10;50.30
8896;DHT22;4484;48.928;10.066;2023-05-29T11:38:37;31.40;49.60
8896;DHT22;4484;48.928;10.066;2023-05-29T11:41:04;31.50;51.80
8896;DHT22;4484;48.928;10.066;2023-05-29T11:43:31;31.50;44.80
8896;DHT22;4484;48.928;10.066;2023-05-29T11:45:57;31.10;49.00
8896;DHT22;4484;48.928;10.066;2023-05-29T11:48:24;30.90;48.10
8896;DHT22;4484;48.928;10.066;2023-05-29T11:50:53;30.60;47.60
8896;DHT22;4484;48.928;10.066;2023-05-29T11:53:20;30.40;49.10
8896;DHT22;4484;48.928;10.066;2023-05-29T11:55:47;30.20;48.20
8896;DHT22;4484;48.928;10.066;2023-05-29T11:58:15;30.40;51.40
8896;DHT22;4484;48.928;10.066;2023-05-29T12:00:43;30.70;50.70
8896;DHT22;4484;48.928;10.066;2023-05-29T12:03:11;31.00;50.80
8896;DHT22;4484;48.928;10.066;2023-05-29T12:05:48;31.30;51.70
8896;DHT22;4484;48.928;10.066;2023-05-29T12:08:16;31.60;49.00
8896;DHT22;4484;48.928;10.066;2023-05-29T12:10:49;31.70;47.40
8896;DHT22;4484;48.928;10.066;2023-05-29T12:13:19;31.60;49.70
8896;DHT22;4484;48.928;10.066;2023-05-29T12:15:47;31.80;51.10
8896;DHT22;4484;48.928;10.066;2023-05-29T12:18:15;31.60;45.70
8896;DHT22;4484;48.928;10.066;2023-05-29T12:20:42;31.60;48.80
8896;DHT22;4484;48.928;10.066;2023-05-29T12:23:09;31.60;44.70
8896;DHT22;4484;48.928;10.066;2023-05-29T12:25:38;31.60;45.00
8896;DHT22;4484;48.928;10.066;2023-05-29T12:28:05;31.50;45.80
8896;DHT22;4484;48.928;10.066;2023-05-29T12:30:37;31.20;47.40
8896;DHT22;4484;48.928;10.066;2023-05-29T12:33:05;31.10;47.40
8896;DHT22;4484;48.928;10.066;2023-05-29T12:35:33;31.00;47.20
8896;DHT22;4484;48.928;10.066;2023-05-29T12:38:01;31.00;46.50
8896;DHT22;4484;48.928;10.066;2023-05-29T12:40:30;31.10;47.90
8896;DHT22;4484;48.928;10.066;2023-05-29T12:43:00;31.00;45.80
8896;DHT22;4484;48.928;10.066;2023-05-29T12:45:29;30.70;41.10
8896;DHT22;4484;48.928;10.066;2023-05-29T12:48:00;30.60;47.00
8896;DHT22;4484;48.928;10.066;2023-05-29T12:50:31;30.60;46.20
8896;DHT22;4484;48.928;10.066;2023-05-29T12:53:06;30.70;49.10
8896;DHT22;4484;48.928;10.066;2023-05-29T12:55:38;30.80;44.00
8896;DHT22;4484;48.928;10.066;2023-05-29T12:58:12;30.90;46.20
8896;DHT22;4484;48.928;10.066;2023-05-29T13:00:44;30.40;43.10
8896;DHT22;4484;48.928;10.066;2023-05-29T13:03:12;30.50;47.40
8896;DHT22;4484;48.928;10.066;2023-05-29T13:05:39;30.50;41.90
8896;DHT22;4484;48.928;10.066;2023-05-29T13:08:07;30.50;44.90
8896;DHT22;4484;48.928;10.066;2023-05-29T13:10:35;30.40;45.40
8896;DHT22;4484;48.928;10.066;2023-05-29T13:13:02;30.40;46.00
8896;DHT22;4484;48.928;10.066;2023-05-29T13:15:29;30.30;42.30
8896;DHT22;4484;48.928;10.066;2023-05-29T13:17:56;29.80;41.60
8896;DHT22;4484;48.928;10.066;2023-05-29T13:20:23;29.40;43.60
8896;DHT22;4484;48.928;10.066;2023-05-29T13:22:50;29.30;43.60
8896;DHT22;4484;48.928;10.066;2023-05-29T13:25:18;29.10;47.80
8896;DHT22;4484;48.928;10.066;2023-05-29T13:27:48;29.30;47.10
8896;DHT22;4484;48.928;10.066;2023-05-29T13:30:15;29.40;44.20
8896;DHT22;4484;48.928;10.066;2023-05-29T13:32:43;29.30;43.70
8896;DHT22;4484;48.928;10.066;2023-05-29T13:35:10;29.40;47.90
8896;DHT22;4484;48.928;10.066;2023-05-29T13:37:37;29.60;49.40
8896;DHT22;4484;48.928;10.066;2023-05-29T13:40:07;29.50;42.60
8896;DHT22;4484;48.928;10.066;2023-05-29T13:42:36;29.30;43.70
8896;DHT22;4484;48.928;10.066;2023-05-29T13:45:06;29.00;42.70
8896;DHT22;4484;48.928;10.066;2023-05-29T13:47:35;28.60;43.70
8896;DHT22;4484;48.928;10.066;2023-05-29T13:50:02;28.60;48.80
8896;DHT22;4484;48.928;10.066;2023-05-29T13:52:29;28.70;48.30
8896;DHT22;4484;48.928;10.066;2023-05-29T13:54:56;28.90;49.70
8896;DHT22;4484;48.928;10.066;2023-05-29T13:57:26;29.10;47.40
8896;DHT22;4484;48.928;10.066;2023-05-29T13:59:52;29.40;50.40
8896;DHT22;4484;48.928;10.066;2023-05-29T14:02:19;29.60;49.70
8896;DHT22;4484;48.928;10.066;2023-05-29T14:04:48;29.40;43.70
8896;DHT22;4484;48.928;10.066;2023-05-29T14:07:15;28.90;42.70
8896;DHT22;4484;48.928;10.066;2023-05-29T14:09:42;28.70;45.90
8896;DHT22;4484;48.928;10.066;2023-05-29T14:12:09;28.60;46.70
8896;DHT22;4484;48.928;10.066;2023-05-29T14:14:36;28.30;44.90
8896;DHT22;4484;48.928;10.066;2023-05-29T14:17:04;28.00;44.50
8896;DHT22;4484;48.928;10.066;2023-05-29T14:19:31;28.00;45.40
8896;DHT22;4484;48.928;10.066;2023-05-29T14:21:58;28.10;45.10
8896;DHT22;4484;48.928;10.066;2023-05-29T14:24:26;28.00;45.00
8896;DHT22;4484;48.928;10.066;2023-05-29T14:26:53;28.10;47.20
8896;DHT22;4484;48.928;10.066;2023-05-29T14:29:20;28.10;44.80
8896;DHT22;4484;48.928;10.066;2023-05-29T14:31:47;28.20;44.90
8896;DHT22;4484;48.928;10.066;2023-05-29T14:34:14;28.40;48.70
8896;DHT22;4484;48.928;10.066;2023-05-29T14:36:41;28.60;48.60
8896;DHT22;4484;48.928;10.066;2023-05-29T14:39:11;28.80;48.90
8896;DHT22;4484;48.928;10.066;2023-05-29T14:41:39;28.90;48.80
8896;DHT22;4484;48.928;10.066;2023-05-29T14:44:06;29.00;48.90
8896;DHT22;4484;48.928;10.066;2023-05-29T14:46:33;29.20;47.40
8896;DHT22;4484;48.928;10.066;2023-05-29T14:49:00;29.30;48.10
8896;DHT22;4484;48.928;10.066;2023-05-29T14:51:28;29.00;42.80
8896;DHT22;4484;48.928;10.066;2023-05-29T14:53:55;28.60;43.20
8896;DHT22;4484;48.928;10.066;2023-05-29T14:56:22;28.40;45.00
8896;DHT22;4484;48.928;10.066;2023-05-29T14:58:49;28.50;48.80
8896;DHT22;4484;48.928;10.066;2023-05-29T15:01:17;28.50;45.70
8896;DHT22;4484;48.928;10.066;2023-05-29T15:03:44;28.60;48.90
8896;DHT22;4484;48.928;10.066;2023-05-29T15:06:12;28.50;45.40
8896;DHT22;4484;48.928;10.066;2023-05-29T15:08:40;28.40;46.70
8896;DHT22;4484;48.928;10.066;2023-05-29T15:11:09;28.30;47.20
8896;DHT22;4484;48.928;10.066;2023-05-29T15:13:36;27.80;42.40
8896;DHT22;4484;48.928;10.066;2023-05-29T15:16:03;27.60;45.20
8896;DHT22;4484;48.928;10.066;2023-05-29T15:18:32;27.60;47.80
8896;DHT22;4484;48.928;10.066;2023-05-29T15:20:58;27.50;45.00
8896;DHT22;4484;48.928;10.066;2023-05-29T15:23:25;27.10;41.80
8896;DHT22;4484;48.928;10.066;2023-05-29T15:25:53;26.80;42.90
8896;DHT22;4484;48.928;10.066;2023-05-29T15:28:21;26.80;45.50
8896;DHT22;4484;48.928;10.066;2023-05-29T15:30:47;26.90;47.10
8896;DHT22;4484;48.928;10.066;2023-05-29T15:33:15;27.00;48.70
8896;DHT22;4484;48.928;10.066;2023-05-29T15:35:42;27.00;49.60
8896;DHT22;4484;48.928;10.066;2023-05-29T15:38:09;27.10;50.50
8896;DHT22;4484;48.928;10.066;2023-05-29T15:40:39;27.20;49.50
8896;DHT22;4484;48.928;10.066;2023-05-29T15:43:07;27.20;47.90
8896;DHT22;4484;48.928;10.066;2023-05-29T15:45:34;27.20;46.90
8896;DHT22;4484;48.928;10.066;2023-05-29T15:48:00;27.20;50.10
8896;DHT22;4484;48.928;10.066;2023-05-29T15:50:27;27.20;50.40
8896;DHT22;4484;48.928;10.066;2023-05-29T15:52:54;27.20;47.90
8896;DHT22;4484;48.928;10.066;2023-05-29T15:55:23;27.10;48.70
8896;DHT22;4484;48.928;10.066;2023-05-29T15:57:50;27.10;46.70
8896;DHT22;4484;48.928;10.066;2023-05-29T16:00:18;27.00;48.80
8896;DHT22;4484;48.928;10.066;2023-05-29T16:02:45;26.90;47.30
8896;DHT22;4484;48.928;10.066;2023-05-29T16:05:12;26.80;50.00
8896;DHT22;4484;48.928;10.066;2023-05-29T16:07:39;26.60;45.20